createdAt,value
2018-08-22T00:01:11.965Z,9.77
2018-08-22T00:03:41.164Z,10.43
2018-08-22T00:06:10.419Z,10.67
2018-08-22T00:08:44.783Z,10.60
2018-08-22T00:11:14.754Z,10.60
2018-08-22T00:13:44.735Z,9.77
2018-08-22T00:16:13.980Z,9.30
2018-08-22T00:18:43.175Z,9.60
2018-08-22T00:21:12.392Z,10.70
2018-08-22T00:23:41.579Z,10.23
2018-08-22T00:26:10.968Z,10.07
2018-08-22T00:28:40.189Z,10.50
2018-08-22T00:31:09.401Z,10.67
2018-08-22T00:33:38.665Z,11.23
2018-08-22T00:36:07.868Z,10.93
2018-08-22T00:38:37.076Z,11.97
2018-08-22T00:41:06.372Z,11.57
2018-08-22T00:43:35.584Z,11.10
2018-08-22T00:46:04.864Z,10.77
2018-08-22T00:48:34.175Z,10.70
2018-08-22T00:51:03.386Z,11.67
2018-08-22T00:53:32.622Z,10.97
2018-08-22T00:56:01.889Z,10.60
2018-08-22T00:58:31.036Z,10.37
2018-08-22T01:01:00.222Z,11.20
2018-08-22T01:03:29.354Z,10.43
2018-08-22T01:05:58.630Z,10.33
2018-08-22T01:08:27.900Z,10.37
2018-08-22T01:10:57.306Z,10.57
2018-08-22T01:13:26.456Z,11.97
2018-08-22T01:15:55.630Z,12.10
2018-08-22T01:18:24.867Z,11.43
2018-08-22T01:20:54.084Z,11.53
2018-08-22T01:23:23.181Z,11.60
2018-08-22T01:25:52.592Z,11.93
2018-08-22T01:28:21.784Z,12.07
2018-08-22T01:30:50.932Z,14.63
2018-08-22T01:33:20.177Z,13.00
2018-08-22T01:35:49.348Z,13.40
2018-08-22T01:38:18.550Z,13.57
2018-08-22T01:40:47.726Z,12.87
2018-08-22T01:43:16.928Z,13.33
2018-08-22T01:45:46.410Z,13.03
2018-08-22T01:48:15.702Z,14.00
2018-08-22T01:50:45.276Z,14.87
2018-08-22T01:53:14.637Z,13.47
2018-08-22T01:55:43.864Z,15.07
2018-08-22T01:58:13.164Z,15.40
2018-08-22T02:00:42.397Z,15.73
2018-08-22T02:03:11.655Z,16.10
2018-08-22T02:05:40.948Z,16.53
2018-08-22T02:08:10.177Z,15.83
2018-08-22T02:10:39.476Z,18.47
2018-08-22T02:13:08.758Z,18.23
2018-08-22T02:15:37.934Z,20.00
2018-08-22T02:18:07.168Z,18.63
2018-08-22T02:20:36.317Z,17.63
2018-08-22T02:23:05.579Z,21.23
2018-08-22T02:25:34.780Z,21.70
2018-08-22T02:28:03.896Z,20.37
2018-08-22T02:30:33.072Z,21.23
2018-08-22T02:33:02.260Z,21.43
2018-08-22T02:35:31.455Z,20.40
2018-08-22T02:38:00.650Z,20.93
2018-08-22T02:40:29.864Z,19.63
2018-08-22T02:42:58.998Z,19.83
2018-08-22T02:45:28.258Z,20.90
2018-08-22T02:47:57.455Z,21.43
2018-08-22T02:50:26.703Z,21.80
2018-08-22T02:52:55.923Z,22.13
2018-08-22T02:55:25.145Z,22.63
2018-08-22T02:57:54.349Z,22.90
2018-08-22T03:00:23.568Z,23.13
2018-08-22T03:02:52.866Z,23.03
2018-08-22T03:05:22.072Z,24.10
2018-08-22T03:07:51.247Z,23.87
2018-08-22T03:10:20.481Z,23.90
2018-08-22T03:12:49.740Z,24.10
2018-08-22T03:15:18.947Z,23.17
2018-08-22T03:17:48.147Z,24.27
2018-08-22T03:20:17.396Z,25.13
2018-08-22T03:22:46.754Z,26.30
2018-08-22T03:25:15.945Z,26.33
2018-08-22T03:27:45.088Z,25.23
2018-08-22T03:30:14.204Z,25.47
2018-08-22T03:32:43.427Z,26.00
2018-08-22T03:35:12.807Z,25.63
2018-08-22T03:37:41.948Z,26.57
2018-08-22T03:40:11.225Z,27.60
2018-08-22T03:42:40.559Z,26.67
2018-08-22T03:45:09.745Z,28.03
2018-08-22T03:47:39.282Z,28.33
2018-08-22T03:50:08.745Z,28.43
2018-08-22T03:52:38.050Z,28.27
2018-08-22T03:55:07.311Z,27.20
2018-08-22T03:57:36.621Z,27.50
2018-08-22T04:00:05.995Z,28.20
2018-08-22T04:02:35.272Z,29.67
2018-08-22T04:05:04.705Z,27.77
2018-08-22T04:07:34.289Z,27.93
2018-08-22T04:10:03.716Z,27.13
2018-08-22T04:12:33.076Z,28.63
2018-08-22T04:15:02.269Z,27.63
2018-08-22T04:17:41.430Z,28.33
2018-08-22T04:20:10.658Z,28.47
2018-08-22T04:22:40.730Z,27.33
2018-08-22T04:25:09.922Z,28.47
2018-08-22T04:27:39.072Z,29.40
2018-08-22T04:30:08.236Z,29.17
2018-08-22T04:32:37.519Z,27.33
2018-08-22T04:35:06.726Z,27.83
2018-08-22T04:37:35.941Z,28.57
2018-08-22T04:40:05.532Z,30.30
2018-08-22T04:42:34.932Z,28.47
2018-08-22T04:45:04.885Z,29.50
2018-08-22T04:47:34.240Z,26.63
2018-08-22T04:50:03.432Z,25.73
2018-08-22T04:52:32.867Z,26.03
2018-08-22T04:55:02.652Z,25.33
2018-08-22T04:57:32.677Z,24.30
2018-08-22T05:00:01.868Z,23.43
2018-08-22T05:02:31.116Z,23.77
2018-08-22T05:05:00.240Z,21.63
2018-08-22T05:07:29.460Z,22.00
2018-08-22T05:09:58.789Z,21.10
2018-08-22T05:12:28.008Z,20.83
2018-08-22T05:14:57.236Z,20.17
2018-08-22T05:17:26.430Z,19.47
2018-08-22T05:19:55.681Z,21.73
2018-08-22T05:22:24.881Z,18.17
2018-08-22T05:24:54.093Z,19.00
2018-08-22T05:27:23.443Z,18.93
2018-08-22T05:29:52.789Z,19.37
2018-08-22T05:32:21.944Z,19.63
2018-08-22T05:34:51.088Z,17.60
2018-08-22T05:37:20.187Z,18.50
2018-08-22T05:39:49.458Z,17.90
2018-08-22T05:42:18.618Z,16.27
2018-08-22T05:44:47.844Z,16.40
2018-08-22T05:47:17.071Z,15.03
2018-08-22T05:49:46.289Z,15.33
2018-08-22T05:52:15.512Z,14.70
2018-08-22T05:54:44.794Z,15.03
2018-08-22T05:57:13.960Z,14.70
2018-08-22T05:59:43.362Z,14.57
2018-08-22T06:02:12.548Z,13.77
2018-08-22T06:04:41.695Z,13.63
2018-08-22T06:07:10.936Z,13.53
2018-08-22T06:09:40.155Z,13.17
2018-08-22T06:12:09.408Z,12.77
2018-08-22T06:14:38.754Z,12.50
2018-08-22T06:17:07.950Z,12.13
2018-08-22T06:19:37.136Z,11.87
2018-08-22T06:22:07.043Z,11.13
2018-08-22T06:24:36.297Z,11.37
2018-08-22T06:27:05.657Z,11.80
2018-08-22T06:29:34.981Z,12.40
2018-08-22T06:32:04.205Z,11.73
2018-08-22T06:34:33.497Z,12.00
2018-08-22T06:37:02.745Z,11.53
2018-08-22T06:39:32.679Z,10.80
2018-08-22T06:42:01.871Z,11.27
2018-08-22T06:44:31.725Z,10.93
2018-08-22T06:47:01.072Z,12.03
2018-08-22T06:49:30.464Z,10.20
2018-08-22T06:51:59.752Z,10.07
2018-08-22T06:54:29.095Z,9.30
2018-08-22T06:56:58.326Z,9.07
2018-08-22T06:59:27.702Z,8.70
2018-08-22T07:01:56.919Z,8.40
2018-08-22T07:04:26.225Z,9.10
2018-08-22T07:06:55.504Z,8.40
2018-08-22T07:09:24.701Z,10.50
2018-08-22T07:11:53.904Z,8.10
2018-08-22T07:14:23.084Z,7.60
2018-08-22T07:16:52.308Z,7.47
2018-08-22T07:19:21.592Z,8.85
2018-08-22T07:21:50.745Z,7.53
2018-08-22T07:24:20.035Z,7.95
2018-08-22T07:26:49.443Z,7.95
2018-08-22T07:29:19.243Z,9.03
2018-08-22T07:31:48.524Z,8.80
2018-08-22T07:34:17.774Z,7.03
2018-08-22T07:36:47.044Z,7.78
2018-08-22T07:39:16.949Z,7.35
2018-08-22T07:41:46.119Z,9.65
2018-08-22T07:44:15.466Z,10.68
2018-08-22T07:46:44.745Z,7.78
2018-08-22T07:49:13.845Z,7.90
2018-08-22T07:51:43.669Z,7.92
2018-08-22T07:54:13.065Z,7.83
2018-08-22T07:56:42.187Z,8.33
2018-08-22T07:59:15.660Z,7.95
2018-08-22T08:01:44.867Z,8.50
2018-08-22T08:04:14.052Z,7.65
2018-08-22T08:06:43.377Z,7.58
2018-08-22T08:09:13.784Z,8.45
2018-08-22T08:11:43.207Z,7.75
2018-08-22T08:14:12.376Z,6.95
2018-08-22T08:16:41.551Z,10.03
2018-08-22T08:19:10.679Z,6.83
2018-08-22T08:21:40.162Z,6.08
2018-08-22T08:24:09.367Z,6.80
2018-08-22T08:26:38.777Z,7.80
2018-08-22T08:29:07.909Z,6.10
2018-08-22T08:31:37.355Z,9.58
2018-08-22T08:34:06.621Z,7.42
2018-08-22T08:36:35.915Z,5.35
2018-08-22T08:39:08.109Z,6.20
2018-08-22T08:41:37.560Z,5.62
2018-08-22T08:44:07.153Z,6.85
2018-08-22T08:46:36.689Z,7.47
2018-08-22T08:49:05.904Z,6.40
2018-08-22T08:51:36.347Z,7.17
2018-08-22T08:54:05.602Z,5.75
2018-08-22T08:56:34.844Z,5.95
2018-08-22T08:59:03.987Z,6.78
2018-08-22T09:01:33.292Z,5.42
2018-08-22T09:04:02.733Z,5.70
2018-08-22T09:06:32.726Z,6.45
2018-08-22T09:09:01.949Z,5.87
2018-08-22T09:11:31.317Z,5.00
2018-08-22T09:14:00.559Z,6.22
2018-08-22T09:16:29.875Z,5.62
2018-08-22T09:18:59.049Z,6.00
2018-08-22T09:21:28.409Z,7.85
2018-08-22T09:23:57.636Z,7.00
2018-08-22T09:26:27.055Z,8.55
2018-08-22T09:28:56.416Z,7.72
2018-08-22T09:31:25.885Z,4.42
2018-08-22T09:33:55.215Z,5.08
2018-08-22T09:36:24.430Z,5.15
2018-08-22T09:38:53.660Z,5.53
2018-08-22T09:41:22.941Z,5.65
2018-08-22T09:43:52.376Z,4.10
2018-08-22T09:46:21.612Z,5.65
2018-08-22T09:48:50.930Z,7.05
2018-08-22T09:51:20.059Z,5.95
2018-08-22T09:53:49.768Z,4.70
2018-08-22T09:56:19.152Z,4.20
2018-08-22T09:58:48.556Z,3.33
2018-08-22T10:01:23.201Z,4.17
2018-08-22T10:03:53.860Z,3.67
2018-08-22T10:06:30.337Z,5.40
2018-08-22T10:09:01.792Z,4.37
2018-08-22T10:11:31.062Z,3.87
2018-08-22T10:14:00.324Z,4.35
2018-08-22T10:16:29.823Z,6.45
2018-08-22T10:18:59.237Z,3.60
2018-08-22T10:21:28.462Z,5.42
2018-08-22T10:23:58.588Z,5.60
2018-08-22T10:26:28.015Z,6.62
2018-08-22T10:28:57.350Z,4.30
2018-08-22T10:31:27.031Z,5.03
2018-08-22T10:33:56.806Z,5.42
2018-08-22T10:36:26.138Z,5.40
2018-08-22T10:38:55.313Z,5.55
2018-08-22T10:41:24.844Z,4.85
2018-08-22T10:43:54.229Z,5.65
2018-08-22T10:46:55.070Z,5.60
2018-08-22T10:49:24.605Z,6.42
2018-08-22T10:51:54.554Z,7.83
2018-08-22T10:54:23.793Z,6.90
2018-08-22T10:56:53.876Z,7.00
2018-08-22T10:59:23.036Z,6.17
2018-08-22T11:01:52.321Z,6.37
2018-08-22T11:04:21.547Z,6.08
2018-08-22T11:06:50.885Z,6.15
2018-08-22T11:09:20.085Z,5.92
2018-08-22T11:11:49.353Z,8.33
2018-08-22T11:14:18.574Z,8.15
2018-08-22T11:16:47.886Z,7.97
2018-08-22T11:19:17.798Z,7.62
2018-08-22T11:21:58.892Z,7.62
2018-08-22T11:24:40.030Z,8.00
2018-08-22T11:27:20.523Z,9.80
2018-08-22T11:30:01.010Z,8.60
2018-08-22T11:32:41.433Z,8.20
2018-08-22T11:35:09.538Z,7.28
2018-08-22T11:37:38.689Z,7.45
2018-08-22T11:40:07.916Z,8.63
2018-08-22T11:42:37.088Z,6.58
2018-08-22T11:45:06.319Z,8.45
2018-08-22T11:47:35.479Z,7.45
2018-08-22T11:50:04.678Z,7.65
2018-08-22T11:52:34.037Z,7.97
2018-08-22T11:55:03.299Z,8.03
2018-08-22T11:57:35.364Z,6.60
2018-08-22T12:00:06.693Z,8.10
2018-08-22T12:02:36.737Z,7.75
2018-08-22T12:05:06.033Z,9.70
2018-08-22T12:07:35.417Z,7.08
2018-08-22T12:10:04.716Z,7.58
2018-08-22T12:12:33.969Z,8.68
2018-08-22T12:15:03.178Z,11.08
2018-08-22T12:17:32.413Z,7.10
2018-08-22T12:20:01.629Z,6.78
2018-08-22T12:22:30.838Z,6.80
2018-08-22T12:25:00.128Z,7.50
2018-08-22T12:27:29.502Z,7.37
2018-08-22T12:29:58.729Z,6.55
2018-08-22T12:32:27.876Z,6.35
2018-08-22T12:34:57.038Z,6.75
2018-08-22T12:37:26.217Z,21.00
2018-08-22T12:39:55.339Z,7.53
2018-08-22T12:42:24.516Z,6.75
2018-08-22T12:44:53.865Z,12.35
2018-08-22T12:47:23.042Z,9.65
2018-08-22T12:49:52.328Z,6.40
2018-08-22T12:52:21.620Z,9.55
2018-08-22T12:54:51.432Z,6.92
2018-08-22T12:57:20.852Z,7.85
2018-08-22T12:59:50.162Z,7.97
2018-08-22T13:02:19.349Z,7.45
2018-08-22T13:04:48.874Z,8.60
2018-08-22T13:07:18.057Z,15.93
2018-08-22T13:09:47.362Z,17.30
2018-08-22T13:12:17.289Z,18.95
2018-08-22T13:14:46.701Z,19.35
2018-08-22T13:17:16.113Z,22.17
2018-08-22T13:19:45.263Z,21.33
2018-08-22T13:22:14.544Z,21.93
2018-08-22T13:24:44.063Z,20.27
2018-08-22T13:27:13.400Z,20.62
2018-08-22T13:29:43.009Z,20.77
2018-08-22T13:32:12.229Z,21.65
2018-08-22T13:34:42.235Z,22.27
2018-08-22T13:37:11.390Z,19.05
2018-08-22T13:39:40.641Z,17.67
2018-08-22T13:42:09.892Z,22.00
2018-08-22T13:44:39.116Z,19.30
2018-08-22T13:47:08.324Z,19.77
2018-08-22T13:49:37.527Z,16.80
2018-08-22T13:52:06.722Z,20.12
2018-08-22T13:54:35.923Z,19.55
2018-08-22T13:57:05.203Z,19.48
2018-08-22T13:59:34.428Z,14.28
2018-08-22T14:02:03.623Z,15.68
2018-08-22T14:04:32.875Z,14.23
2018-08-22T14:07:03.240Z,13.18
2018-08-22T14:09:32.498Z,11.95
2018-08-22T14:12:01.758Z,14.75
2018-08-22T14:14:30.932Z,16.32
2018-08-22T14:17:00.388Z,11.75
2018-08-22T14:19:29.574Z,13.50
2018-08-22T14:21:58.745Z,13.18
2018-08-22T14:24:28.067Z,9.98
2018-08-22T14:26:58.846Z,9.60
2018-08-22T14:29:47.184Z,9.35
2018-08-22T14:32:29.695Z,10.23
2018-08-22T14:35:04.364Z,11.20
2018-08-22T14:37:35.712Z,11.43
2018-08-22T14:40:04.881Z,10.98
2018-08-22T14:42:34.143Z,10.68
2018-08-22T14:45:03.398Z,9.53
2018-08-22T14:47:32.581Z,10.55
2018-08-22T14:50:01.809Z,12.18
2018-08-22T14:52:31.247Z,11.28
2018-08-22T14:55:02.412Z,12.10
2018-08-22T14:57:31.587Z,12.60
2018-08-22T15:00:01.690Z,12.18
2018-08-22T15:02:31.119Z,12.75
2018-08-22T15:05:00.364Z,14.53
2018-08-22T15:07:29.668Z,13.78
2018-08-22T15:09:58.791Z,14.58
2018-08-22T15:12:28.066Z,16.37
2018-08-22T15:14:57.266Z,15.30
2018-08-22T15:17:26.641Z,16.42
2018-08-22T15:19:56.067Z,15.05
2018-08-22T15:22:25.449Z,14.87
2018-08-22T15:24:55.390Z,13.38
2018-08-22T15:27:24.529Z,14.18
2018-08-22T15:29:54.274Z,13.90
2018-08-22T15:32:23.705Z,14.73
2018-08-22T15:34:54.168Z,13.40
2018-08-22T15:37:24.218Z,12.37
2018-08-22T15:39:53.530Z,11.70
2018-08-22T15:42:35.266Z,11.97
2018-08-22T15:45:05.250Z,10.60
2018-08-22T15:47:34.702Z,10.20
2018-08-22T15:50:03.896Z,9.50
2018-08-22T15:52:33.140Z,11.07
2018-08-22T15:55:23.476Z,9.40
2018-08-22T15:58:01.807Z,7.73
2018-08-22T16:00:41.842Z,8.80
2018-08-22T16:03:11.552Z,11.80
2018-08-22T16:05:42.000Z,10.07
2018-08-22T16:08:12.113Z,8.40
2018-08-22T16:10:41.967Z,11.07
2018-08-22T16:13:17.761Z,13.87
2018-08-22T16:15:53.398Z,10.23
2018-08-22T16:18:29.413Z,7.83
2018-08-22T16:21:01.074Z,8.87
2018-08-22T16:23:32.400Z,8.20
2018-08-22T16:26:02.941Z,10.17
2018-08-22T16:28:43.797Z,11.17
2018-08-22T16:31:13.311Z,8.13
2018-08-22T16:33:42.462Z,7.87
2018-08-22T16:36:15.881Z,10.90
2018-08-22T16:38:45.029Z,10.93
2018-08-22T16:41:14.789Z,10.30
2018-08-22T16:43:45.084Z,11.33
2018-08-22T16:46:15.548Z,11.37
2018-08-22T16:48:48.660Z,10.13
2018-08-22T16:51:17.975Z,7.77
2018-08-22T16:53:55.358Z,8.63
2018-08-22T16:56:25.056Z,9.50
2018-08-22T16:58:59.586Z,10.07
2018-08-22T17:01:28.880Z,8.40
2018-08-22T17:03:58.151Z,7.93
2018-08-22T17:06:28.620Z,9.60
2018-08-22T17:09:00.043Z,14.33
2018-08-22T17:11:36.313Z,8.40
2018-08-22T17:14:05.492Z,7.77
2018-08-22T17:16:35.294Z,7.50
2018-08-22T17:19:04.647Z,7.17
2018-08-22T17:21:33.797Z,10.23
2018-08-22T17:24:03.417Z,9.83
2018-08-22T17:26:33.037Z,8.17
2018-08-22T17:29:05.541Z,13.40
2018-08-22T17:31:34.736Z,12.87
2018-08-22T17:34:04.295Z,10.87
2018-08-22T17:36:33.526Z,9.87
2018-08-22T17:39:03.214Z,7.73
2018-08-22T17:41:32.372Z,14.60
2018-08-22T17:44:08.022Z,6.00
2018-08-22T17:46:41.103Z,9.83
2018-08-22T17:49:10.537Z,6.67
2018-08-22T17:52:01.444Z,7.33
2018-08-22T17:54:31.199Z,6.90
2018-08-22T17:57:12.115Z,12.53
2018-08-22T17:59:42.489Z,9.77
2018-08-22T18:02:12.107Z,10.10
2018-08-22T18:04:53.013Z,9.80
2018-08-22T18:07:22.157Z,9.00
2018-08-22T18:09:52.208Z,12.23
2018-08-22T18:12:25.352Z,12.57
2018-08-22T18:14:57.566Z,13.90
2018-08-22T18:17:26.756Z,7.00
2018-08-22T18:19:58.270Z,9.03
2018-08-22T18:22:29.979Z,8.00
2018-08-22T18:24:59.466Z,12.20
2018-08-22T18:27:28.934Z,13.30
2018-08-22T18:29:59.190Z,12.80
2018-08-22T18:32:28.591Z,10.90
2018-08-22T18:35:09.165Z,12.80
2018-08-22T18:37:39.104Z,14.90
2018-08-22T18:40:30.804Z,15.00
2018-08-22T18:43:04.984Z,15.37
2018-08-22T18:45:34.462Z,15.47
2018-08-22T18:48:05.177Z,15.23
2018-08-22T18:50:34.449Z,16.53
2018-08-22T18:53:03.751Z,13.97
2018-08-22T18:55:34.899Z,14.83
2018-08-22T18:58:12.300Z,16.43
2018-08-22T19:00:41.920Z,15.23
2018-08-22T19:03:11.146Z,13.47
2018-08-22T19:05:40.517Z,15.63
2018-08-22T19:08:17.464Z,12.70
2018-08-22T19:10:51.812Z,15.00
2018-08-22T19:13:22.939Z,16.43
2018-08-22T19:15:59.940Z,16.77
2018-08-22T19:18:29.122Z,15.97
2018-08-22T19:21:05.428Z,16.17
2018-08-22T19:23:35.594Z,19.27
2018-08-22T19:26:05.845Z,16.97
2018-08-22T19:29:01.302Z,18.47
2018-08-22T19:31:31.008Z,20.17
2018-08-22T19:34:00.488Z,20.07
2018-08-22T19:36:29.773Z,20.73
2018-08-22T19:38:58.972Z,30.47
2018-08-22T19:41:34.277Z,22.27
2018-08-22T19:44:11.366Z,20.57
2018-08-22T19:46:41.126Z,21.33
2018-08-22T19:49:11.443Z,21.33
2018-08-22T19:52:04.489Z,21.17
2018-08-22T19:54:37.170Z,23.90
2018-08-22T19:57:07.097Z,20.97
2018-08-22T19:59:36.505Z,20.83
2018-08-22T20:02:05.956Z,27.00
2018-08-22T20:04:40.563Z,21.80
2018-08-22T20:07:09.952Z,21.80
2018-08-22T20:09:42.419Z,24.17
2018-08-22T20:12:13.365Z,26.43
2018-08-22T20:14:50.326Z,25.10
2018-08-22T20:17:29.355Z,24.37
2018-08-22T20:20:18.273Z,26.70
2018-08-22T20:22:51.750Z,28.73
2018-08-22T20:25:21.386Z,25.93
2018-08-22T20:27:50.694Z,26.70
2018-08-22T20:30:21.812Z,25.80
2018-08-22T20:32:59.742Z,28.53
2018-08-22T20:35:37.241Z,25.43
2018-08-22T20:38:08.080Z,32.57
2018-08-22T20:40:37.294Z,27.20
2018-08-22T20:43:09.408Z,28.20
2018-08-22T20:45:43.426Z,30.80
2018-08-22T20:48:13.794Z,29.23
2018-08-22T20:50:45.049Z,27.80
2018-08-22T20:53:17.949Z,29.40
2018-08-22T20:55:47.267Z,27.87
2018-08-22T20:58:35.114Z,28.53
2018-08-22T21:01:04.349Z,33.13
2018-08-22T21:03:33.564Z,29.63
2018-08-22T21:06:02.694Z,33.77
2018-08-22T21:08:31.885Z,30.67
2018-08-22T21:11:01.212Z,37.03
2018-08-22T21:13:30.457Z,33.17
2018-08-22T21:15:59.760Z,33.67
2018-08-22T21:18:28.999Z,33.73
2018-08-22T21:20:58.284Z,34.67
2018-08-22T21:23:28.204Z,31.77
2018-08-22T21:25:57.347Z,39.63
2018-08-22T21:28:31.794Z,31.67
2018-08-22T21:31:01.767Z,35.83
2018-08-22T21:33:31.537Z,33.33
2018-08-22T21:36:00.815Z,33.77
2018-08-22T21:38:29.930Z,39.63
2018-08-22T21:40:59.299Z,37.33
2018-08-22T21:43:28.549Z,38.03
2018-08-22T21:45:57.670Z,36.17
2018-08-22T21:48:27.188Z,41.43
2018-08-22T21:50:56.384Z,42.00
2018-08-22T21:53:26.596Z,44.93
2018-08-22T21:55:55.944Z,46.47
2018-08-22T21:58:25.141Z,40.27
2018-08-22T22:00:56.045Z,43.13
2018-08-22T22:03:30.822Z,49.23
2018-08-22T22:06:03.726Z,43.03
2018-08-22T22:08:36.515Z,45.67
2018-08-22T22:11:07.159Z,46.87
2018-08-22T22:13:36.423Z,48.10
2018-08-22T22:16:06.236Z,44.77
2018-08-22T22:18:40.680Z,46.50
2018-08-22T22:21:12.008Z,44.07
2018-08-22T22:23:50.734Z,47.53
2018-08-22T22:26:22.911Z,49.23
2018-08-22T22:28:53.088Z,44.60
2018-08-22T22:31:22.317Z,45.80
2018-08-22T22:33:56.806Z,43.77
2018-08-22T22:36:26.009Z,46.60
2018-08-22T22:38:55.247Z,44.53
2018-08-22T22:41:26.893Z,44.47
2018-08-22T22:43:56.058Z,46.40
2018-08-22T22:46:25.254Z,49.17
2018-08-22T22:48:54.470Z,50.00
2018-08-22T22:51:23.624Z,51.20
2018-08-22T22:53:52.838Z,50.80
2018-08-22T22:56:22.032Z,50.87
2018-08-22T22:58:51.283Z,48.57
2018-08-22T23:01:20.462Z,52.57
2018-08-22T23:03:50.703Z,52.27
2018-08-22T23:06:19.918Z,53.00
2018-08-22T23:08:49.173Z,53.80
2018-08-22T23:11:18.491Z,52.77
2018-08-22T23:13:47.746Z,59.00
2018-08-22T23:16:21.988Z,55.20
2018-08-22T23:18:51.180Z,56.37
2018-08-22T23:21:20.388Z,58.97
2018-08-22T23:23:49.869Z,58.50
2018-08-22T23:26:20.029Z,50.97
2018-08-22T23:28:49.940Z,52.47
2018-08-22T23:31:21.393Z,59.63
2018-08-22T23:33:50.798Z,52.43
2018-08-22T23:36:19.954Z,52.33
2018-08-22T23:38:49.227Z,52.70
2018-08-22T23:41:18.481Z,50.70
2018-08-22T23:43:52.361Z,49.50
2018-08-22T23:46:21.475Z,54.93
2018-08-22T23:48:57.365Z,47.53
2018-08-22T23:51:26.575Z,49.27
2018-08-22T23:53:58.842Z,48.77
2018-08-22T23:56:29.269Z,47.93
2018-08-22T23:58:58.981Z,47.27
